首页
METAR-TAF:

METAR-TAF

机场 :

科克赛德, 比利时

纬度: 51-05N, 经度: 002-39E, 海拔: 4米

当前天气观测

该预报发布于35分钟前的22:25 UTC
风速1节,风向多变
温度 4°C
湿度 93%
气压 1029 hPa
能見度: 3600
轻雾

METAR: EBFN 022225Z AUTO VRB01KT 3600 BR NCD 04/03 Q1029 YLO

时间: 00:00 (23:00 UTC)

预报

该预报发布于11小时和19分钟前的11:41 UTC
预报有效从02日的 13点(UTC)到 02日的 22点(UTC)
风速3节,风向多变
能见度10公里或以上
天空无云
几率 30% :
短暂存在
从 02日的 13点(UTC)到 02日的 18点(UTC)
风速5节,风向北转东北
成为
从 02日的 18点(UTC)到 02日的 22点(UTC)
能見度: 6000
几率 30% :
短暂存在
从 02日的 20点(UTC)到 02日的 22点(UTC)
能見度: 4000
浅雾

TAF: EBFN 021141Z 0213/0222 VRB03KT 9999 SKC PROB30 TEMPO 0213/0218 03005KT BECMG 0218/0222 6000 PROB30 TEMPO 0220/0222 4000 MIFG

超过4000个机场的气象观测和天气预报(METAR&TAF报告)。

可查询的气象台以黄色和红色小点在地图上表示。

将鼠标移到小点上方,可查看气象台名称。

然后点击查看天气观测和预报。

如需切换地图:点击带黑十字的绿色按钮放大地图;点击带横线的绿色按钮缩小地图;或者点击绿色箭头查看邻近地区的地图。


METAR-TAF: